Terminal Aerodrome Forecast
Issued by NWS

Home | Current Version | Previous Version | Text Only | Print | Product List | Glossary On
Versions: 1 2 3 4 5 6 7 8 9 10 11 12 13 14 15 16 17 18 19 20 21 22 23 24 25 26 27 28 29
000
FTUS45 KGJT 221420 AAA
TAFTEX
TAF AMD
KTEX 221420Z 2214/2312 23010G31KT P6SM SKC
     FM221500 25016G39KT P6SM BKN090
     FM230100 21020G35KT P6SM VCSH SCT130 WS020/22040KT
     FM230500 23020G35KT P6SM VCSH BKN110
     FM230800 23025G40KT 5SM -SHSN BR BKN040=

USA.gov is the U.S. government's official web portal to all federal, state and local government web resources and services.